createdAt,value
2023-02-02T00:01:41.623Z,19.45
2023-02-02T00:06:50.744Z,22.97
2023-02-02T00:11:59.163Z,23.63
2023-02-02T00:17:07.881Z,21.63
2023-02-02T00:22:16.620Z,23.17
2023-02-02T00:27:25.121Z,22.64
2023-02-02T00:32:33.254Z,24.32
2023-02-02T00:37:42.168Z,24.97
2023-02-02T00:42:50.446Z,25.69
2023-02-02T00:47:59.366Z,29.63
2023-02-02T00:53:07.963Z,27.29
2023-02-02T00:58:16.549Z,28.27
2023-02-02T01:03:25.170Z,27.45
2023-02-02T01:08:33.885Z,28.04
2023-02-02T01:13:42.152Z,27.16
2023-02-02T01:18:51.165Z,28.50
2023-02-02T01:23:59.486Z,27.52
2023-02-02T01:29:08.581Z,30.01
2023-02-02T01:34:16.833Z,28.23
2023-02-02T01:39:25.522Z,30.17
2023-02-02T01:44:33.731Z,30.84
2023-02-02T01:49:42.489Z,32.16
2023-02-02T01:54:51.078Z,30.79
2023-02-02T01:59:59.835Z,33.21
2023-02-02T02:05:07.624Z,17.78
2023-02-02T02:10:16.741Z,14.16
2023-02-02T02:15:25.277Z,18.05
2023-02-02T02:20:33.935Z,20.28
2023-02-02T02:25:42.223Z,22.78
2023-02-02T02:30:50.815Z,22.71
2023-02-02T02:35:59.512Z,21.89
2023-02-02T02:41:07.683Z,22.54
2023-02-02T02:46:16.446Z,25.75
2023-02-02T02:51:25.142Z,19.41
2023-02-02T02:56:33.467Z,17.55
2023-02-02T03:01:42.145Z,20.94
2023-02-02T03:06:50.353Z,20.62
2023-02-02T03:11:58.695Z,24.37
2023-02-02T03:17:06.843Z,26.25
2023-02-02T03:22:15.522Z,21.91
2023-02-02T03:27:23.713Z,23.83
2023-02-02T03:32:32.215Z,23.01
2023-02-02T03:37:40.280Z,22.57
2023-02-02T03:42:48.809Z,21.47
2023-02-02T03:47:57.142Z,26.61
2023-02-02T03:53:05.740Z,22.91
2023-02-02T03:58:13.993Z,22.75
2023-02-02T04:03:22.792Z,20.73
2023-02-02T04:08:31.267Z,19.96
2023-02-02T04:13:39.735Z,20.88
2023-02-02T04:18:47.899Z,17.08
2023-02-02T04:23:56.547Z,18.75
2023-02-02T04:29:04.871Z,19.19
2023-02-02T04:34:13.157Z,16.48
2023-02-02T04:39:21.645Z,19.14
2023-02-02T04:44:30.388Z,19.48
2023-02-02T04:49:38.472Z,19.39
2023-02-02T04:54:47.057Z,21.54
2023-02-02T04:59:55.300Z,23.39
2023-02-02T05:05:03.927Z,25.65
2023-02-02T05:10:12.476Z,21.42
2023-02-02T05:15:21.652Z,22.78
2023-02-02T05:20:29.983Z,24.35
2023-02-02T05:25:38.597Z,24.26
2023-02-02T05:30:46.705Z,28.02
2023-02-02T05:35:55.057Z,21.61
2023-02-02T05:41:03.557Z,28.34
2023-02-02T05:46:12.189Z,25.81
2023-02-02T05:51:20.334Z,27.04
2023-02-02T05:56:28.779Z,29.77
2023-02-02T06:01:36.839Z,27.20
2023-02-02T06:06:45.724Z,27.37
2023-02-02T06:11:54.538Z,32.19
2023-02-02T06:17:02.942Z,27.70
2023-02-02T06:22:11.282Z,25.95
2023-02-02T06:27:20.474Z,27.22
2023-02-02T06:32:29.046Z,26.53
2023-02-02T06:37:40.787Z,24.31
2023-02-02T06:42:39.019Z,16.75
2023-02-02T06:47:47.991Z,13.40
2023-02-02T06:52:56.431Z,11.50
2023-02-02T06:58:04.733Z,11.36
2023-02-02T07:03:13.282Z,11.33
2023-02-02T07:08:21.726Z,10.83
2023-02-02T07:13:30.012Z,9.42
2023-02-02T07:18:38.619Z,11.20
2023-02-02T07:23:46.868Z,10.93
2023-02-02T07:28:55.249Z,11.42
2023-02-02T07:34:03.615Z,10.75
2023-02-02T07:39:12.189Z,10.93
2023-02-02T07:44:20.451Z,10.88
2023-02-02T07:49:28.803Z,9.82
2023-02-02T07:54:37.249Z,8.00
2023-02-02T07:59:45.988Z,7.81
2023-02-02T08:04:54.309Z,9.50
2023-02-02T08:10:03.117Z,9.42
2023-02-02T08:15:12.428Z,9.39
2023-02-02T08:20:21.338Z,9.15
2023-02-02T08:25:29.459Z,7.65
2023-02-02T08:30:37.860Z,7.53
2023-02-02T08:35:46.039Z,7.58
2023-02-02T08:40:54.875Z,7.45
2023-02-02T08:46:05.280Z,7.73
2023-02-02T08:51:11.537Z,8.06
2023-02-02T08:56:19.921Z,5.95
2023-02-02T09:01:29.593Z,6.11
2023-02-02T09:06:37.903Z,5.84
2023-02-02T09:11:46.441Z,5.74
2023-02-02T09:16:54.799Z,5.59
2023-02-02T09:22:03.550Z,5.91
2023-02-02T09:27:11.666Z,6.20
2023-02-02T09:32:20.172Z,6.67
2023-02-02T09:37:29.169Z,5.90
2023-02-02T09:42:37.768Z,5.27
2023-02-02T09:47:45.991Z,5.01
2023-02-02T09:52:54.700Z,4.55
2023-02-02T09:58:03.068Z,4.33
2023-02-02T10:03:12.287Z,4.69
2023-02-02T10:08:33.895Z,4.99
2023-02-02T10:13:28.768Z,4.07
2023-02-02T10:18:37.320Z,4.00
2023-02-02T10:23:45.972Z,3.86
2023-02-02T10:28:54.548Z,4.19
2023-02-02T10:34:03.033Z,4.34
2023-02-02T10:39:11.437Z,3.54
2023-02-02T10:44:20.035Z,3.59
2023-02-02T10:49:28.452Z,3.48
2023-02-02T10:54:53.861Z,3.39
2023-02-02T10:59:45.417Z,3.50
2023-02-02T11:04:54.106Z,3.47
2023-02-02T11:10:02.811Z,3.56
2023-02-02T11:15:11.185Z,3.95
2023-02-02T11:20:19.796Z,3.83
2023-02-02T11:25:28.552Z,3.06
2023-02-02T11:30:37.201Z,3.27
2023-02-02T11:35:45.839Z,3.35
2023-02-02T11:40:54.309Z,3.78
2023-02-02T11:46:03.463Z,3.38
2023-02-02T11:51:12.043Z,3.00
2023-02-02T11:56:20.771Z,2.95
2023-02-02T12:01:29.271Z,2.81
2023-02-02T12:06:38.258Z,3.03
2023-02-02T12:11:46.842Z,2.55
2023-02-02T12:16:55.304Z,2.76
2023-02-02T12:22:03.998Z,3.36
2023-02-02T12:27:12.417Z,3.09
2023-02-02T12:32:21.003Z,3.19
2023-02-02T12:37:29.521Z,3.57
2023-02-02T12:42:38.318Z,3.81
2023-02-02T12:47:46.841Z,3.50
2023-02-02T12:52:55.401Z,4.71
2023-02-02T12:58:06.388Z,15.54
2023-02-02T13:03:13.016Z,13.79
2023-02-02T13:08:21.768Z,4.28
2023-02-02T13:13:30.438Z,6.75
2023-02-02T13:18:39.370Z,5.57
2023-02-02T13:23:48.483Z,3.86
2023-02-02T13:28:57.176Z,8.46
2023-02-02T13:34:05.893Z,14.83
2023-02-02T13:39:14.632Z,17.62
2023-02-02T13:44:23.479Z,11.64
2023-02-02T13:49:32.785Z,6.31
2023-02-02T13:54:40.893Z,4.77
2023-02-02T13:59:49.302Z,4.70
2023-02-02T14:04:57.931Z,5.25
2023-02-02T14:10:06.874Z,4.58
2023-02-02T14:15:15.074Z,4.92
2023-02-02T14:20:23.428Z,7.44
2023-02-02T14:25:32.133Z,9.52
2023-02-02T14:30:40.992Z,7.67
2023-02-02T14:35:49.588Z,6.55
2023-02-02T14:40:58.324Z,6.64
2023-02-02T14:46:06.423Z,7.84
2023-02-02T14:51:15.189Z,7.90
2023-02-02T14:56:23.662Z,8.38
2023-02-02T15:01:32.288Z,8.60
2023-02-02T15:06:40.918Z,9.73
2023-02-02T15:11:49.745Z,11.20
2023-02-02T15:16:58.501Z,9.49
2023-02-02T15:22:07.690Z,9.56
2023-02-02T15:27:19.433Z,9.12
2023-02-02T15:32:18.063Z,8.81
2023-02-02T15:37:26.836Z,7.97
2023-02-02T15:42:35.547Z,7.66
2023-02-02T15:47:43.925Z,6.94
2023-02-02T15:52:52.744Z,8.09
2023-02-02T15:58:01.437Z,8.06
2023-02-02T16:03:10.388Z,8.71
2023-02-02T16:08:18.674Z,10.94
2023-02-02T16:13:27.584Z,13.21
2023-02-02T16:18:35.795Z,11.91
2023-02-02T16:23:45.350Z,11.77
2023-02-02T16:28:53.876Z,11.11
2023-02-02T16:34:02.530Z,12.63
2023-02-02T16:39:10.556Z,11.95
2023-02-02T16:44:19.139Z,11.33
2023-02-02T16:49:27.563Z,11.92
2023-02-02T16:54:36.735Z,11.80
2023-02-02T16:59:45.392Z,12.89
2023-02-02T17:04:54.351Z,12.96
2023-02-02T17:10:03.221Z,13.48
2023-02-02T17:15:12.325Z,13.80
2023-02-02T17:20:20.663Z,14.78
2023-02-02T17:25:29.529Z,14.92
2023-02-02T17:30:38.165Z,15.75
2023-02-02T17:35:53.682Z,15.66
2023-02-02T17:40:55.294Z,16.94
2023-02-02T17:46:04.093Z,19.04
2023-02-02T17:51:12.537Z,18.07
2023-02-02T17:56:21.636Z,15.76
2023-02-02T18:01:30.850Z,16.32
2023-02-02T18:06:39.888Z,18.55
2023-02-02T18:11:48.590Z,19.19
2023-02-02T18:16:57.934Z,19.28
2023-02-02T18:22:07.217Z,16.93
2023-02-02T18:27:16.556Z,18.53
2023-02-02T18:32:25.097Z,22.51
2023-02-02T18:37:34.358Z,28.83
2023-02-02T18:42:43.565Z,26.06
2023-02-02T18:47:52.777Z,28.87
2023-02-02T18:53:01.525Z,29.44
2023-02-02T18:58:10.333Z,32.05
2023-02-02T19:03:18.992Z,26.91
2023-02-02T19:08:28.264Z,30.01
2023-02-02T19:13:37.024Z,28.32
2023-02-02T19:18:46.192Z,26.11
2023-02-02T19:23:55.052Z,25.23
2023-02-02T19:29:03.597Z,27.53
2023-02-02T19:34:11.902Z,24.99
2023-02-02T19:39:20.853Z,26.55
2023-02-02T19:44:29.311Z,28.85
2023-02-02T19:49:38.460Z,27.89
2023-02-02T19:54:46.633Z,24.67
2023-02-02T19:59:55.678Z,25.30
2023-02-02T20:05:04.677Z,22.64
2023-02-02T20:10:13.594Z,22.52
2023-02-02T20:15:22.105Z,23.24
2023-02-02T20:20:30.869Z,21.60
2023-02-02T20:25:39.833Z,21.31
2023-02-02T20:30:48.736Z,23.74
2023-02-02T20:35:57.116Z,22.04
2023-02-02T20:41:06.124Z,20.46
2023-02-02T20:46:14.717Z,20.16
2023-02-02T20:51:23.412Z,19.66
2023-02-02T20:56:32.222Z,20.11
2023-02-02T21:01:41.125Z,19.61
2023-02-02T21:06:49.708Z,19.04
2023-02-02T21:11:58.756Z,17.54
2023-02-02T21:17:14.978Z,18.81
2023-02-02T21:22:15.583Z,19.11
2023-02-02T21:27:24.163Z,20.78
2023-02-02T21:32:33.319Z,25.37
2023-02-02T21:37:41.934Z,21.05
2023-02-02T21:42:50.670Z,22.00
2023-02-02T21:47:59.249Z,23.73
2023-02-02T21:53:07.841Z,22.16
2023-02-02T21:58:16.591Z,22.44
2023-02-02T22:03:25.232Z,20.59
2023-02-02T22:08:33.503Z,21.67
2023-02-02T22:13:42.020Z,22.64
2023-02-02T22:18:50.612Z,22.59
2023-02-02T22:23:59.492Z,24.49
2023-02-02T22:29:08.311Z,23.44
2023-02-02T22:34:17.253Z,25.03
2023-02-02T22:39:25.897Z,23.18
2023-02-02T22:44:35.143Z,24.63
2023-02-02T22:49:43.787Z,24.94
2023-02-02T22:54:52.302Z,24.25
2023-02-02T23:00:00.765Z,28.74
2023-02-02T23:05:09.385Z,26.81
2023-02-02T23:10:17.702Z,25.24
2023-02-02T23:15:26.245Z,23.41
2023-02-02T23:20:34.242Z,25.90
2023-02-02T23:25:43.146Z,26.25
2023-02-02T23:30:51.613Z,29.76
2023-02-02T23:35:59.906Z,28.60
2023-02-02T23:41:08.402Z,35.47
2023-02-02T23:46:16.993Z,42.75
2023-02-02T23:51:25.858Z,48.75
2023-02-02T23:56:34.657Z,56.71
